»·PEaware :: N134CK KTOA-KVNY

N134CK :: KTOA-KVNY

FLIGHT INFORMATION

Flight Status: Arrived
Operator: Privately registered:
United States
More flights under this callsign
Pilot: John C. (18682)
Aircraft: CESSNA 172 SKYHAWK
(C172)
More flights by this aircraft type
Origin: KTOA Zamperini
United States
Destination: KVNY Van Nuys
United States
More flights between these airports :: More routes between these airports
Route: LAX170 LIMBO V64 SMO125 SMO SMO317 CANOG
File this flight plan on PilotEdge
Remarks: TEC SCTP2 / / SKYHIGH SCENARIO 1
Altitude:
(Current/Filed)
4,000ft
Speed:
(Current/Filed)
110kts
Departed: 01-Dec-19 04:54 PM
Arrived: 01-Dec-19 06:19 PM
Distance/Time
Traveled:
26nm/1:24
Distance/Time
To Go:
Arrived

Flight Plot

Page will automatically refresh every two minutes.

Flight plan parsing failed; only flown route is shown


Map Options




Map Legend


Flown Route
Filed Route
Departure Airport
Arrival Airport
Navaid (VOR, NDB)
Fix

Horizontal Profiles

Position Reports

Time Latitude Longitude Heading Altitude Ground
Speed
01-Dec-19 16:43 33.796566 -118.332467 260 107ft 0kts
01-Dec-19 16:44 33.796566 -118.332467 260 107ft 0kts
01-Dec-19 16:45 33.796566 -118.332467 260 107ft 0kts
01-Dec-19 16:46 33.796566 -118.332467 260 107ft 0kts
01-Dec-19 16:47 33.796566 -118.332467 260 107ft 0kts
01-Dec-19 16:48 33.796566 -118.332467 260 107ft 0kts
01-Dec-19 16:49 33.797107 -118.332428 359 105ft 8kts
01-Dec-19 16:50 33.797768 -118.334073 290 106ft 3kts
01-Dec-19 16:51 33.798899 -118.333470 38 101ft 8kts
01-Dec-19 16:52 33.799152 -118.333241 37 100ft 0kts
01-Dec-19 16:53 33.800796 -118.334719 308 99ft 52kts
01-Dec-19 16:54 33.812705 -118.353934 303 1067ft 72kts
01-Dec-19 16:55 33.824976 -118.372910 305 2077ft 72kts
01-Dec-19 16:56 33.837117 -118.391703 305 3060ft 71kts
01-Dec-19 16:57 33.849557 -118.410359 306 3890ft 73kts
01-Dec-19 16:58 33.858007 -118.434981 226 4027ft 105kts
01-Dec-19 16:59 33.827579 -118.442837 190 4044ft 113kts
01-Dec-19 17:00 33.796926 -118.446139 191 3937ft 107kts
01-Dec-19 17:01 33.768709 -118.447947 156 3943ft 105kts
01-Dec-19 17:02 33.761333 -118.413596 89 3993ft 111kts
01-Dec-19 17:03 33.763507 -118.374464 88 4028ft 118kts
01-Dec-19 17:04 33.766213 -118.334797 87 4067ft 121kts
01-Dec-19 17:05 33.768624 -118.293899 87 4030ft 122kts
01-Dec-19 17:06 33.771091 -118.252533 86 3971ft 123kts
01-Dec-19 17:07 33.786469 -118.228462 328 3976ft 103kts
01-Dec-19 17:08 33.810618 -118.245593 328 4039ft 100kts
01-Dec-19 17:09 33.831073 -118.267125 304 4042ft 99kts
01-Dec-19 17:10 33.847959 -118.292981 313 4085ft 97kts
01-Dec-19 17:11 33.869032 -118.314379 317 4067ft 100kts
01-Dec-19 17:12 33.890188 -118.336198 319 4063ft 100kts
01-Dec-19 17:13 33.911381 -118.357609 318 4062ft 99kts
01-Dec-19 17:14 33.932496 -118.379429 318 4053ft 100kts
01-Dec-19 17:15 33.954058 -118.401006 318 4038ft 101kts
01-Dec-19 17:16 33.975689 -118.422694 316 4028ft 101kts
01-Dec-19 17:17 33.997334 -118.444663 318 4022ft 102kts
01-Dec-19 17:18 34.019203 -118.466558 313 4017ft 102kts
01-Dec-19 17:19 34.040693 -118.489475 313 4013ft 103kts
01-Dec-19 17:20 34.062592 -118.512163 313 4014ft 104kts
01-Dec-19 17:21 34.084212 -118.535295 316 4018ft 105kts
01-Dec-19 17:22 34.105775 -118.558448 313 4038ft 102kts
01-Dec-19 17:23 34.126688 -118.581603 311 4048ft 101kts
01-Dec-19 17:24 34.154556 -118.585362 352 4538ft 105kts
01-Dec-19 17:25 34.182897 -118.584870 354 4954ft 100kts
01-Dec-19 17:26 34.210664 -118.584443 353 5081ft 99kts
01-Dec-19 17:27 34.238266 -118.584464 353 5048ft 98kts
01-Dec-19 17:28 34.265495 -118.584814 353 4977ft 97kts
01-Dec-19 17:29 34.291930 -118.585020 354 5000ft 94kts
01-Dec-19 17:30 34.317796 -118.585232 353 5025ft 93kts
01-Dec-19 17:31 34.343643 -118.585854 353 5030ft 94kts
01-Dec-19 17:32 34.369677 -118.586080 353 5027ft 94kts
01-Dec-19 17:33 34.395850 -118.586401 354 5027ft 94kts
01-Dec-19 17:34 34.422143 -118.586167 353 5019ft 95kts
01-Dec-19 17:35 34.448965 -118.586105 354 4999ft 97kts
01-Dec-19 17:36 34.456912 -118.556037 103 4974ft 120kts
01-Dec-19 17:37 34.436387 -118.525996 143 4957ft 119kts
01-Dec-19 17:38 34.407369 -118.509458 176 4973ft 112kts
01-Dec-19 17:39 34.376370 -118.506503 184 4899ft 112kts
01-Dec-19 17:40 34.344755 -118.503681 176 4419ft 118kts
01-Dec-19 17:41 34.312371 -118.500683 178 3409ft 113kts
01-Dec-19 17:42 34.283424 -118.497583 181 2591ft 100kts
01-Dec-19 17:43 34.257993 -118.494972 181 1921ft 81kts
01-Dec-19 17:44 34.238563 -118.493180 180 1475ft 72kts
01-Dec-19 17:45 34.217378 -118.490854 177 1244ft 75kts
01-Dec-19 17:46 34.196600 -118.488103 178 1693ft 78kts
01-Dec-19 17:47 34.176162 -118.481863 166 2202ft 84kts
01-Dec-19 17:48 34.154309 -118.473120 170 2945ft 79kts
01-Dec-19 17:49 34.133795 -118.466380 169 3661ft 75kts
01-Dec-19 17:50 34.113940 -118.459675 174 4361ft 73kts
01-Dec-19 17:52 34.094198 -118.453561 195 4722ft 74kts
01-Dec-19 17:53 34.070566 -118.454940 187 4677ft 95kts
01-Dec-19 17:54 34.044325 -118.455821 188 4636ft 90kts
01-Dec-19 17:55 34.019447 -118.457174 209 4602ft 84kts
01-Dec-19 17:56 34.011903 -118.481537 262 4596ft 77kts
01-Dec-19 17:57 34.015683 -118.506966 275 4681ft 80kts
01-Dec-19 17:58 34.019405 -118.533558 274 5011ft 79kts
01-Dec-19 17:59 34.023263 -118.560324 276 5059ft 83kts
01-Dec-19 18:00 34.027566 -118.588023 275 5081ft 84kts
01-Dec-19 18:01 34.032278 -118.616013 276 5085ft 85kts
01-Dec-19 18:02 34.037062 -118.644486 274 5075ft 86kts
01-Dec-19 18:03 34.049461 -118.666220 343 5112ft 103kts
01-Dec-19 18:04 34.077886 -118.672783 342 5041ft 106kts
01-Dec-19 18:05 34.106660 -118.680229 342 5001ft 106kts
01-Dec-19 18:06 34.135407 -118.688907 340 5023ft 106kts
01-Dec-19 18:07 34.164055 -118.699349 342 4983ft 109kts
01-Dec-19 18:08 34.191377 -118.700121 64 4437ft 95kts
01-Dec-19 18:09 34.199746 -118.671616 79 3918ft 93kts
01-Dec-19 18:10 34.200323 -118.640493 81 3796ft 95kts
01-Dec-19 18:11 34.200023 -118.607828 83 3466ft 100kts
01-Dec-19 18:11 34.199970 -118.580428 81 3152ft 98kts
01-Dec-19 18:13 34.200764 -118.541805 82 2447ft 97kts
01-Dec-19 18:14 34.198920 -118.509752 96 1665ft 89kts
01-Dec-19 18:14 34.182211 -118.504446 183 1490ft 74kts
01-Dec-19 18:15 34.178717 -118.489156 28 1336ft 66kts
01-Dec-19 18:17 34.197663 -118.487988 353 991ft 58kts
01-Dec-19 18:17 34.210515 -118.489225 356 806ft 44kts
01-Dec-19 18:18 34.213314 -118.488465 81 806ft 3kts
01-Dec-19 18:19 34.213428 -118.488239 260 806ft 0kts
01-Dec-19 18:20 34.213428 -118.488239 260 806ft 0kts

Navigation Log

Ident Type
Flight plan parsing failed, navigation log unavailable